sensor_id;sensor_type;location;lat;lon;timestamp;pressure;altitude;pressure_sealevel;temperature;humidity
45071;BME280;30836;48.906;9.140;2023-02-28T00:00:27;993.58;;;7.10;32.29
45071;BME280;30836;48.906;9.140;2023-02-28T00:01:27;993.58;;;7.05;32.44
45071;BME280;30836;48.906;9.140;2023-02-28T00:02:28;993.58;;;7.04;32.47
45071;BME280;30836;48.906;9.140;2023-02-28T00:03:28;993.60;;;7.04;32.48
45071;BME280;30836;48.906;9.140;2023-02-28T00:04:29;993.54;;;7.03;32.50
45071;BME280;30836;48.906;9.140;2023-02-28T00:05:29;993.56;;;7.01;32.54
45071;BME280;30836;48.906;9.140;2023-02-28T00:06:30;993.54;;;7.01;32.58
45071;BME280;30836;48.906;9.140;2023-02-28T00:07:30;993.56;;;7.01;32.67
45071;BME280;30836;48.906;9.140;2023-02-28T00:08:31;993.56;;;7.00;32.73
45071;BME280;30836;48.906;9.140;2023-02-28T00:09:32;993.56;;;6.97;32.98
45071;BME280;30836;48.906;9.140;2023-02-28T00:10:32;993.56;;;6.91;33.10
45071;BME280;30836;48.906;9.140;2023-02-28T00:11:33;993.52;;;6.88;33.21
45071;BME280;30836;48.906;9.140;2023-02-28T00:12:34;993.56;;;6.85;33.31
45071;BME280;30836;48.906;9.140;2023-02-28T00:13:35;993.56;;;6.80;33.42
45071;BME280;30836;48.906;9.140;2023-02-28T00:14:37;993.58;;;6.77;33.53
45071;BME280;30836;48.906;9.140;2023-02-28T00:15:38;993.54;;;6.72;33.67
45071;BME280;30836;48.906;9.140;2023-02-28T00:16:38;993.52;;;6.67;33.79
45071;BME280;30836;48.906;9.140;2023-02-28T00:17:38;993.52;;;6.68;33.70
45071;BME280;30836;48.906;9.140;2023-02-28T00:18:39;993.56;;;6.68;33.88
45071;BME280;30836;48.906;9.140;2023-02-28T00:19:40;993.50;;;6.62;34.21
45071;BME280;30836;48.906;9.140;2023-02-28T00:20:41;993.52;;;6.56;34.22
45071;BME280;30836;48.906;9.140;2023-02-28T00:21:41;993.52;;;6.55;34.26
45071;BME280;30836;48.906;9.140;2023-02-28T00:22:42;993.50;;;6.55;34.35
45071;BME280;30836;48.906;9.140;2023-02-28T00:23:45;993.56;;;6.59;34.26
45071;BME280;30836;48.906;9.140;2023-02-28T00:24:46;993.54;;;6.71;33.93
45071;BME280;30836;48.906;9.140;2023-02-28T00:25:46;993.52;;;6.86;33.72
45071;BME280;30836;48.906;9.140;2023-02-28T00:26:47;993.54;;;7.00;33.55
45071;BME280;30836;48.906;9.140;2023-02-28T00:27:47;993.54;;;7.12;33.38
45071;BME280;30836;48.906;9.140;2023-02-28T00:28:48;993.56;;;7.16;33.42
45071;BME280;30836;48.906;9.140;2023-02-28T00:29:48;993.52;;;7.13;33.56
45071;BME280;30836;48.906;9.140;2023-02-28T00:30:49;993.50;;;7.07;33.76
45071;BME280;30836;48.906;9.140;2023-02-28T00:31:49;993.50;;;6.99;33.89
45071;BME280;30836;48.906;9.140;2023-02-28T00:32:50;993.50;;;6.92;33.98
45071;BME280;30836;48.906;9.140;2023-02-28T00:33:51;993.50;;;6.85;34.16
45071;BME280;30836;48.906;9.140;2023-02-28T00:34:51;993.52;;;6.79;34.35
45071;BME280;30836;48.906;9.140;2023-02-28T00:35:52;993.52;;;6.71;34.58
45071;BME280;30836;48.906;9.140;2023-02-28T00:36:52;993.50;;;6.67;34.67
45071;BME280;30836;48.906;9.140;2023-02-28T00:37:53;993.50;;;6.67;34.74
45071;BME280;30836;48.906;9.140;2023-02-28T00:38:53;993.48;;;6.71;34.59
45071;BME280;30836;48.906;9.140;2023-02-28T00:39:54;993.52;;;6.76;34.60
45071;BME280;30836;48.906;9.140;2023-02-28T00:40:54;993.52;;;6.76;34.58
45071;BME280;30836;48.906;9.140;2023-02-28T00:41:54;993.50;;;6.74;34.72
45071;BME280;30836;48.906;9.140;2023-02-28T00:42:55;993.52;;;6.68;34.89
45071;BME280;30836;48.906;9.140;2023-02-28T00:43:55;993.52;;;6.64;34.94
45071;BME280;30836;48.906;9.140;2023-02-28T00:44:56;993.52;;;6.57;35.25
45071;BME280;30836;48.906;9.140;2023-02-28T00:45:56;993.48;;;6.48;35.35
45071;BME280;30836;48.906;9.140;2023-02-28T00:46:57;993.48;;;6.46;35.39
45071;BME280;30836;48.906;9.140;2023-02-28T00:47:58;993.48;;;6.46;35.43
45071;BME280;30836;48.906;9.140;2023-02-28T00:48:59;993.50;;;6.45;35.46
45071;BME280;30836;48.906;9.140;2023-02-28T00:49:59;993.48;;;6.44;35.54
45071;BME280;30836;48.906;9.140;2023-02-28T00:51:00;993.48;;;6.44;35.60
45071;BME280;30836;48.906;9.140;2023-02-28T00:52:00;993.48;;;6.45;35.55
45071;BME280;30836;48.906;9.140;2023-02-28T00:53:01;993.48;;;6.47;35.56
45071;BME280;30836;48.906;9.140;2023-02-28T00:54:01;993.46;;;6.48;35.55
45071;BME280;30836;48.906;9.140;2023-02-28T00:55:02;993.46;;;6.48;35.65
45071;BME280;30836;48.906;9.140;2023-02-28T00:56:03;993.48;;;6.46;35.74
45071;BME280;30836;48.906;9.140;2023-02-28T00:57:03;993.44;;;6.45;35.75
45071;BME280;30836;48.906;9.140;2023-02-28T00:58:04;993.46;;;6.44;35.76
45071;BME280;30836;48.906;9.140;2023-02-28T00:59:04;993.46;;;6.43;35.87
45071;BME280;30836;48.906;9.140;2023-02-28T01:00:05;993.46;;;6.43;35.89
45071;BME280;30836;48.906;9.140;2023-02-28T01:01:06;993.46;;;6.44;35.88
45071;BME280;30836;48.906;9.140;2023-02-28T01:02:07;993.46;;;6.45;35.96
45071;BME280;30836;48.906;9.140;2023-02-28T01:03:07;993.48;;;6.45;35.90
45071;BME280;30836;48.906;9.140;2023-02-28T01:04:08;993.46;;;6.46;35.85
45071;BME280;30836;48.906;9.140;2023-02-28T01:05:09;993.46;;;6.47;35.83
45071;BME280;30836;48.906;9.140;2023-02-28T01:06:09;993.46;;;6.44;36.02
45071;BME280;30836;48.906;9.140;2023-02-28T01:07:10;993.46;;;6.36;36.29
45071;BME280;30836;48.906;9.140;2023-02-28T01:08:10;993.46;;;6.33;36.28
45071;BME280;30836;48.906;9.140;2023-02-28T01:09:11;993.44;;;6.33;36.27
45071;BME280;30836;48.906;9.140;2023-02-28T01:10:12;993.44;;;6.36;36.15
45071;BME280;30836;48.906;9.140;2023-02-28T01:11:14;993.42;;;6.39;36.10
45071;BME280;30836;48.906;9.140;2023-02-28T01:12:16;993.44;;;6.44;36.10
45071;BME280;30836;48.906;9.140;2023-02-28T01:13:16;993.46;;;6.57;35.85
45071;BME280;30836;48.906;9.140;2023-02-28T01:14:17;993.44;;;6.74;35.53
45071;BME280;30836;48.906;9.140;2023-02-28T01:15:18;993.44;;;6.89;35.25
45071;BME280;30836;48.906;9.140;2023-02-28T01:16:18;993.44;;;7.00;35.07
45071;BME280;30836;48.906;9.140;2023-02-28T01:17:19;993.46;;;7.06;35.10
45071;BME280;30836;48.906;9.140;2023-02-28T01:18:19;993.46;;;7.13;35.00
45071;BME280;30836;48.906;9.140;2023-02-28T01:19:20;993.42;;;7.17;35.00
45071;BME280;30836;48.906;9.140;2023-02-28T01:20:21;993.44;;;7.14;35.12
45071;BME280;30836;48.906;9.140;2023-02-28T01:21:21;993.42;;;7.15;35.10
45071;BME280;30836;48.906;9.140;2023-02-28T01:22:22;993.40;;;7.18;34.99
45071;BME280;30836;48.906;9.140;2023-02-28T01:23:23;993.40;;;7.21;34.94
45071;BME280;30836;48.906;9.140;2023-02-28T01:24:24;993.38;;;7.26;34.83
45071;BME280;30836;48.906;9.140;2023-02-28T01:25:24;993.36;;;7.31;34.73
45071;BME280;30836;48.906;9.140;2023-02-28T01:26:25;993.36;;;7.36;34.70
45071;BME280;30836;48.906;9.140;2023-02-28T01:27:25;993.38;;;7.39;34.70
45071;BME280;30836;48.906;9.140;2023-02-28T01:28:25;993.40;;;7.41;34.73
45071;BME280;30836;48.906;9.140;2023-02-28T01:29:26;993.38;;;7.42;34.65
45071;BME280;30836;48.906;9.140;2023-02-28T01:30:26;993.38;;;7.43;34.59
45071;BME280;30836;48.906;9.140;2023-02-28T01:31:27;993.38;;;7.43;34.66
45071;BME280;30836;48.906;9.140;2023-02-28T01:32:28;993.36;;;7.44;34.62
45071;BME280;30836;48.906;9.140;2023-02-28T01:33:28;993.38;;;7.46;34.61
45071;BME280;30836;48.906;9.140;2023-02-28T01:34:29;993.38;;;7.42;34.75
45071;BME280;30836;48.906;9.140;2023-02-28T01:35:32;993.38;;;7.35;34.88
45071;BME280;30836;48.906;9.140;2023-02-28T01:36:33;993.34;;;7.38;34.80
45071;BME280;30836;48.906;9.140;2023-02-28T01:37:33;993.38;;;7.42;34.77
45071;BME280;30836;48.906;9.140;2023-02-28T01:38:34;993.38;;;7.45;34.69
45071;BME280;30836;48.906;9.140;2023-02-28T01:39:34;993.38;;;7.51;34.58
45071;BME280;30836;48.906;9.140;2023-02-28T01:40:35;993.38;;;7.56;34.48
45071;BME280;30836;48.906;9.140;2023-02-28T01:41:35;993.38;;;7.62;34.38
45071;BME280;30836;48.906;9.140;2023-02-28T01:42:36;993.40;;;7.67;34.35
45071;BME280;30836;48.906;9.140;2023-02-28T01:45:53;993.38;;;7.76;34.24
45071;BME280;30836;48.906;9.140;2023-02-28T01:46:55;993.38;;;7.67;34.46
45071;BME280;30836;48.906;9.140;2023-02-28T01:47:57;993.40;;;7.55;34.69
45071;BME280;30836;48.906;9.140;2023-02-28T01:49:02;993.40;;;7.40;34.97
45071;BME280;30836;48.906;9.140;2023-02-28T01:50:07;993.40;;;7.28;35.22
45071;BME280;30836;48.906;9.140;2023-02-28T01:51:16;993.40;;;7.19;35.29
45071;BME280;30836;48.906;9.140;2023-02-28T01:52:22;993.38;;;7.11;35.54
45071;BME280;30836;48.906;9.140;2023-02-28T01:53:26;993.36;;;7.00;35.69
45071;BME280;30836;48.906;9.140;2023-02-28T01:54:33;993.38;;;6.96;35.78
45071;BME280;30836;48.906;9.140;2023-02-28T01:55:35;993.38;;;6.99;35.69
45071;BME280;30836;48.906;9.140;2023-02-28T01:56:36;993.36;;;7.07;35.49
45071;BME280;30836;48.906;9.140;2023-02-28T01:57:38;993.38;;;7.18;35.29
45071;BME280;30836;48.906;9.140;2023-02-28T01:58:41;993.36;;;7.26;35.18
45071;BME280;30836;48.906;9.140;2023-02-28T01:59:43;993.36;;;7.25;35.38
45071;BME280;30836;48.906;9.140;2023-02-28T02:00:52;993.38;;;7.13;35.76
45071;BME280;30836;48.906;9.140;2023-02-28T02:01:53;993.38;;;6.99;35.97
45071;BME280;30836;48.906;9.140;2023-02-28T02:02:55;993.34;;;6.88;36.10
45071;BME280;30836;48.906;9.140;2023-02-28T02:04:01;993.34;;;6.82;36.26
45071;BME280;30836;48.906;9.140;2023-02-28T02:04:12;993.32;;;6.73;36.26
45071;BME280;30836;48.906;9.140;2023-02-28T02:05:17;993.30;;;6.74;36.33
45071;BME280;30836;48.906;9.140;2023-02-28T02:06:23;993.32;;;6.76;36.33
45071;BME280;30836;48.906;9.140;2023-02-28T02:07:29;993.30;;;6.79;36.30
45071;BME280;30836;48.906;9.140;2023-02-28T02:08:33;993.28;;;6.89;36.08
45071;BME280;30836;48.906;9.140;2023-02-28T02:09:33;993.28;;;7.02;35.86
45071;BME280;30836;48.906;9.140;2023-02-28T02:11:40;993.27;;;7.25;35.56
45071;BME280;30836;48.906;9.140;2023-02-28T02:13:07;993.28;;;7.37;35.35
45071;BME280;30836;48.906;9.140;2023-02-28T02:38:09;993.13;;;6.69;37.05
45071;BME280;30836;48.906;9.140;2023-02-28T02:39:15;993.11;;;6.63;37.07
45071;BME280;30836;48.906;9.140;2023-02-28T02:40:31;993.13;;;6.59;37.26
45071;BME280;30836;48.906;9.140;2023-02-28T02:41:34;993.15;;;6.54;37.42
45071;BME280;30836;48.906;9.140;2023-02-28T02:43:46;993.13;;;6.44;37.71
45071;BME280;30836;48.906;9.140;2023-02-28T02:44:51;993.13;;;6.40;37.71
45071;BME280;30836;48.906;9.140;2023-02-28T02:47:08;993.15;;;6.46;37.70
45071;BME280;30836;48.906;9.140;2023-02-28T02:48:13;993.15;;;6.48;37.65
45071;BME280;30836;48.906;9.140;2023-02-28T02:50:34;993.09;;;6.40;37.97
45071;BME280;30836;48.906;9.140;2023-02-28T02:51:42;993.07;;;6.23;38.46
45071;BME280;30836;48.906;9.140;2023-02-28T02:52:45;993.09;;;6.14;38.48
45071;BME280;30836;48.906;9.140;2023-02-28T02:53:53;993.09;;;6.14;38.54
45071;BME280;30836;48.906;9.140;2023-02-28T02:55:01;993.07;;;6.15;38.42
45071;BME280;30836;48.906;9.140;2023-02-28T02:56:03;993.09;;;6.17;38.46
45071;BME280;30836;48.906;9.140;2023-02-28T02:58:17;993.09;;;6.18;38.63
45071;BME280;30836;48.906;9.140;2023-02-28T02:59:21;993.11;;;6.19;38.69
45071;BME280;30836;48.906;9.140;2023-02-28T03:00:25;993.11;;;6.23;38.64
45071;BME280;30836;48.906;9.140;2023-02-28T03:01:31;993.09;;;6.26;38.60
45071;BME280;30836;48.906;9.140;2023-02-28T03:02:32;993.11;;;6.28;38.57
45071;BME280;30836;48.906;9.140;2023-02-28T03:03:34;993.11;;;6.28;38.63
45071;BME280;30836;48.906;9.140;2023-02-28T03:03:44;993.09;;;6.27;38.63
45071;BME280;30836;48.906;9.140;2023-02-28T03:04:46;993.09;;;6.27;38.75
45071;BME280;30836;48.906;9.140;2023-02-28T03:05:52;993.09;;;6.27;38.76
45071;BME280;30836;48.906;9.140;2023-02-28T03:06:52;993.07;;;6.22;39.11
45071;BME280;30836;48.906;9.140;2023-02-28T03:07:53;993.09;;;6.15;39.19
45071;BME280;30836;48.906;9.140;2023-02-28T03:08:53;993.09;;;6.13;39.19
45071;BME280;30836;48.906;9.140;2023-02-28T03:09:54;993.11;;;6.12;39.19
45071;BME280;30836;48.906;9.140;2023-02-28T03:10:59;993.07;;;6.08;39.45
45071;BME280;30836;48.906;9.140;2023-02-28T03:12:03;993.09;;;6.02;39.70
45071;BME280;30836;48.906;9.140;2023-02-28T03:16:35;993.09;;;6.04;39.59
45071;BME280;30836;48.906;9.140;2023-02-28T03:20:05;993.13;;;6.15;39.46
45071;BME280;30836;48.906;9.140;2023-02-28T03:23:37;993.13;;;6.74;38.38
45071;BME280;30836;48.906;9.140;2023-02-28T03:25:52;993.13;;;6.98;37.95
45071;BME280;30836;48.906;9.140;2023-02-28T03:26:58;993.11;;;7.07;37.79
45071;BME280;30836;48.906;9.140;2023-02-28T03:30:24;993.11;;;7.21;37.59
45071;BME280;30836;48.906;9.140;2023-02-28T03:31:37;993.15;;;7.30;37.50
45071;BME280;30836;48.906;9.140;2023-02-28T03:32:43;993.17;;;7.40;37.33
45071;BME280;30836;48.906;9.140;2023-02-28T03:33:56;993.19;;;7.50;37.12
45071;BME280;30836;48.906;9.140;2023-02-28T03:36:16;993.13;;;7.63;36.93
45071;BME280;30836;48.906;9.140;2023-02-28T03:37:20;993.11;;;7.65;36.93
45071;BME280;30836;48.906;9.140;2023-02-28T03:39:35;993.11;;;7.65;36.91
45071;BME280;30836;48.906;9.140;2023-02-28T03:40:42;993.11;;;7.62;37.04
45071;BME280;30836;48.906;9.140;2023-02-28T03:41:52;993.11;;;7.54;37.20
45071;BME280;30836;48.906;9.140;2023-02-28T03:43:02;993.09;;;7.52;37.13
45071;BME280;30836;48.906;9.140;2023-02-28T03:44:11;993.11;;;7.58;36.93
45071;BME280;30836;48.906;9.140;2023-02-28T03:45:18;993.09;;;7.59;37.17
45071;BME280;30836;48.906;9.140;2023-02-28T03:46:23;993.11;;;7.49;37.34
45071;BME280;30836;48.906;9.140;2023-02-28T03:47:28;993.11;;;7.37;37.63
45071;BME280;30836;48.906;9.140;2023-02-28T03:48:44;993.09;;;7.26;37.76
45071;BME280;30836;48.906;9.140;2023-02-28T03:49:48;993.07;;;7.18;37.90
45071;BME280;30836;48.906;9.140;2023-02-28T03:50:57;993.07;;;7.14;37.92
45071;BME280;30836;48.906;9.140;2023-02-28T03:51:59;993.07;;;7.09;38.10
45071;BME280;30836;48.906;9.140;2023-02-28T03:53:06;993.07;;;7.01;38.32
45071;BME280;30836;48.906;9.140;2023-02-28T03:55:25;993.05;;;6.90;38.56
45071;BME280;30836;48.906;9.140;2023-02-28T03:57:40;993.07;;;6.73;38.86
45071;BME280;30836;48.906;9.140;2023-02-28T04:01:12;993.07;;;6.63;39.12
45071;BME280;30836;48.906;9.140;2023-02-28T04:02:20;993.07;;;6.73;38.77
45071;BME280;30836;48.906;9.140;2023-02-28T04:03:20;993.07;;;6.90;38.36
45071;BME280;30836;48.906;9.140;2023-02-28T04:04:21;993.07;;;7.06;38.13
45071;BME280;30836;48.906;9.140;2023-02-28T04:05:21;993.09;;;7.13;38.10
45071;BME280;30836;48.906;9.140;2023-02-28T04:06:23;993.07;;;7.06;38.38
45071;BME280;30836;48.906;9.140;2023-02-28T04:07:24;993.09;;;6.94;38.74
45071;BME280;30836;48.906;9.140;2023-02-28T04:08:24;993.07;;;6.80;39.01
45071;BME280;30836;48.906;9.140;2023-02-28T04:09:25;993.07;;;6.66;39.14
45071;BME280;30836;48.906;9.140;2023-02-28T04:10:25;993.09;;;6.58;39.27
45071;BME280;30836;48.906;9.140;2023-02-28T04:10:36;993.09;;;6.51;39.28
45071;BME280;30836;48.906;9.140;2023-02-28T04:11:37;993.09;;;6.53;39.24
45071;BME280;30836;48.906;9.140;2023-02-28T04:12:39;993.11;;;6.57;39.24
45071;BME280;30836;48.906;9.140;2023-02-28T04:13:39;993.11;;;6.59;39.21
45071;BME280;30836;48.906;9.140;2023-02-28T04:14:40;993.15;;;6.60;39.23
45071;BME280;30836;48.906;9.140;2023-02-28T04:15:40;993.15;;;6.59;39.27
45071;BME280;30836;48.906;9.140;2023-02-28T04:16:41;993.21;;;6.56;39.39
45071;BME280;30836;48.906;9.140;2023-02-28T04:17:42;993.17;;;6.45;39.57
45071;BME280;30836;48.906;9.140;2023-02-28T04:18:42;993.19;;;6.32;39.94
45071;BME280;30836;48.906;9.140;2023-02-28T04:19:43;993.21;;;6.28;39.97
45071;BME280;30836;48.906;9.140;2023-02-28T04:20:43;993.21;;;6.30;39.90
45071;BME280;30836;48.906;9.140;2023-02-28T04:21:46;993.23;;;6.35;39.80
45071;BME280;30836;48.906;9.140;2023-02-28T04:22:48;993.21;;;6.40;39.71
45071;BME280;30836;48.906;9.140;2023-02-28T04:23:48;993.25;;;6.43;39.62
45071;BME280;30836;48.906;9.140;2023-02-28T04:24:49;993.28;;;6.47;39.53
45071;BME280;30836;48.906;9.140;2023-02-28T04:25:49;993.27;;;6.51;39.50
45071;BME280;30836;48.906;9.140;2023-02-28T04:26:51;993.28;;;6.56;39.34
45071;BME280;30836;48.906;9.140;2023-02-28T04:27:52;993.28;;;6.64;39.25
45071;BME280;30836;48.906;9.140;2023-02-28T04:28:53;993.27;;;6.74;38.95
45071;BME280;30836;48.906;9.140;2023-02-28T04:29:53;993.25;;;6.84;38.69
45071;BME280;30836;48.906;9.140;2023-02-28T04:32:01;993.25;;;6.96;38.36
45071;BME280;30836;48.906;9.140;2023-02-28T04:33:02;993.25;;;7.00;38.35
45071;BME280;30836;48.906;9.140;2023-02-28T04:34:02;993.19;;;7.08;38.19
45071;BME280;30836;48.906;9.140;2023-02-28T04:35:04;993.21;;;7.19;37.98
45071;BME280;30836;48.906;9.140;2023-02-28T04:36:06;993.21;;;7.29;37.80
45071;BME280;30836;48.906;9.140;2023-02-28T04:37:08;993.19;;;7.35;37.80
45071;BME280;30836;48.906;9.140;2023-02-28T04:38:08;993.17;;;7.37;37.70
45071;BME280;30836;48.906;9.140;2023-02-28T04:39:08;993.17;;;7.39;37.73
45071;BME280;30836;48.906;9.140;2023-02-28T04:40:09;993.17;;;7.38;37.86
45071;BME280;30836;48.906;9.140;2023-02-28T04:41:10;993.17;;;7.38;37.74
45071;BME280;30836;48.906;9.140;2023-02-28T04:42:11;993.19;;;7.41;37.72
45071;BME280;30836;48.906;9.140;2023-02-28T04:43:12;993.17;;;7.37;37.70
45071;BME280;30836;48.906;9.140;2023-02-28T04:44:13;993.19;;;7.29;37.90
45071;BME280;30836;48.906;9.140;2023-02-28T04:45:14;993.15;;;7.20;38.00
45071;BME280;30836;48.906;9.140;2023-02-28T04:46:14;993.11;;;7.02;38.30
45071;BME280;30836;48.906;9.140;2023-02-28T04:47:15;993.13;;;6.94;38.50
45071;BME280;30836;48.906;9.140;2023-02-28T04:48:15;993.13;;;6.92;38.46
45071;BME280;30836;48.906;9.140;2023-02-28T04:49:16;993.15;;;6.92;38.36
45071;BME280;30836;48.906;9.140;2023-02-28T04:50:16;993.09;;;6.91;38.50
45071;BME280;30836;48.906;9.140;2023-02-28T04:51:17;993.09;;;6.82;38.87
45071;BME280;30836;48.906;9.140;2023-02-28T04:52:18;993.15;;;6.70;39.04
45071;BME280;30836;48.906;9.140;2023-02-28T04:53:19;993.13;;;6.59;39.41
45071;BME280;30836;48.906;9.140;2023-02-28T04:54:20;993.09;;;6.41;39.81
45071;BME280;30836;48.906;9.140;2023-02-28T04:55:20;993.11;;;6.15;40.43
45071;BME280;30836;48.906;9.140;2023-02-28T04:56:21;993.09;;;5.95;40.64
45071;BME280;30836;48.906;9.140;2023-02-28T04:57:22;993.09;;;5.90;40.61
45071;BME280;30836;48.906;9.140;2023-02-28T04:58:22;993.11;;;5.84;40.78
45071;BME280;30836;48.906;9.140;2023-02-28T04:59:23;993.13;;;5.79;40.96
45071;BME280;30836;48.906;9.140;2023-02-28T05:00:23;993.13;;;5.77;40.85
45071;BME280;30836;48.906;9.140;2023-02-28T05:01:25;993.17;;;5.76;41.03
45071;BME280;30836;48.906;9.140;2023-02-28T05:02:28;993.17;;;5.73;41.21
45071;BME280;30836;48.906;9.140;2023-02-28T05:03:28;993.15;;;5.78;41.03
45071;BME280;30836;48.906;9.140;2023-02-28T05:04:28;993.19;;;5.85;40.82
45071;BME280;30836;48.906;9.140;2023-02-28T05:05:29;993.21;;;5.90;40.85
45071;BME280;30836;48.906;9.140;2023-02-28T05:06:30;993.23;;;5.88;40.88
45071;BME280;30836;48.906;9.140;2023-02-28T05:07:32;993.23;;;5.84;41.01
45071;BME280;30836;48.906;9.140;2023-02-28T05:08:33;993.23;;;5.85;40.97
45071;BME280;30836;48.906;9.140;2023-02-28T05:09:33;993.23;;;5.87;40.95
45071;BME280;30836;48.906;9.140;2023-02-28T05:10:34;993.23;;;5.86;40.98
45071;BME280;30836;48.906;9.140;2023-02-28T05:11:35;993.23;;;5.86;41.02
45071;BME280;30836;48.906;9.140;2023-02-28T05:12:35;993.23;;;5.87;40.87
45071;BME280;30836;48.906;9.140;2023-02-28T05:13:36;993.19;;;5.85;40.97
45071;BME280;30836;48.906;9.140;2023-02-28T05:14:36;993.17;;;5.80;41.11
45071;BME280;30836;48.906;9.140;2023-02-28T05:15:36;993.19;;;5.77;41.34
45071;BME280;30836;48.906;9.140;2023-02-28T05:16:37;993.21;;;5.68;41.50
45071;BME280;30836;48.906;9.140;2023-02-28T05:17:38;993.17;;;5.60;41.60
45071;BME280;30836;48.906;9.140;2023-02-28T05:18:38;993.19;;;5.54;41.61
45071;BME280;30836;48.906;9.140;2023-02-28T05:19:39;993.17;;;5.52;41.67
45071;BME280;30836;48.906;9.140;2023-02-28T05:20:39;993.19;;;5.57;41.48
45071;BME280;30836;48.906;9.140;2023-02-28T05:21:40;993.19;;;5.63;41.42
45071;BME280;30836;48.906;9.140;2023-02-28T05:22:46;993.19;;;5.70;41.28
45071;BME280;30836;48.906;9.140;2023-02-28T05:23:47;993.21;;;5.73;41.17
45071;BME280;30836;48.906;9.140;2023-02-28T05:24:47;993.21;;;5.78;41.16
45071;BME280;30836;48.906;9.140;2023-02-28T05:25:48;993.19;;;5.82;41.09
45071;BME280;30836;48.906;9.140;2023-02-28T05:26:49;993.21;;;5.88;40.90
45071;BME280;30836;48.906;9.140;2023-02-28T05:27:51;993.23;;;5.99;40.63
45071;BME280;30836;48.906;9.140;2023-02-28T05:28:51;993.28;;;6.07;40.63
45071;BME280;30836;48.906;9.140;2023-02-28T05:29:52;993.27;;;6.06;40.74
45071;BME280;30836;48.906;9.140;2023-02-28T05:30:53;993.25;;;6.03;40.75
45071;BME280;30836;48.906;9.140;2023-02-28T05:31:53;993.28;;;6.04;40.59
45071;BME280;30836;48.906;9.140;2023-02-28T05:32:54;993.30;;;6.03;40.85
45071;BME280;30836;48.906;9.140;2023-02-28T05:33:54;993.30;;;6.05;40.60
45071;BME280;30836;48.906;9.140;2023-02-28T05:34:54;993.32;;;6.05;40.82
45071;BME280;30836;48.906;9.140;2023-02-28T05:35:55;993.30;;;6.06;40.60
45071;BME280;30836;48.906;9.140;2023-02-28T05:36:55;993.32;;;6.12;40.38
45071;BME280;30836;48.906;9.140;2023-02-28T05:37:56;993.34;;;6.19;40.31
45071;BME280;30836;48.906;9.140;2023-02-28T05:38:56;993.30;;;6.22;40.24
45071;BME280;30836;48.906;9.140;2023-02-28T05:39:57;993.30;;;6.20;40.23
45071;BME280;30836;48.906;9.140;2023-02-28T05:40:57;993.34;;;6.21;40.24
45071;BME280;30836;48.906;9.140;2023-02-28T05:41:58;993.34;;;6.24;40.13
45071;BME280;30836;48.906;9.140;2023-02-28T05:42:58;993.36;;;6.28;40.08
45071;BME280;30836;48.906;9.140;2023-02-28T05:43:58;993.34;;;6.31;40.12
45071;BME280;30836;48.906;9.140;2023-02-28T05:44:59;993.36;;;6.33;40.13
45071;BME280;30836;48.906;9.140;2023-02-28T05:46:01;993.38;;;6.40;39.97
45071;BME280;30836;48.906;9.140;2023-02-28T05:47:02;993.38;;;6.46;39.82
45071;BME280;30836;48.906;9.140;2023-02-28T05:48:03;993.36;;;6.54;39.66
45071;BME280;30836;48.906;9.140;2023-02-28T05:49:03;993.34;;;6.59;39.56
45071;BME280;30836;48.906;9.140;2023-02-28T05:50:04;993.38;;;6.60;39.63
45071;BME280;30836;48.906;9.140;2023-02-28T05:51:06;993.38;;;6.56;39.65
45071;BME280;30836;48.906;9.140;2023-02-28T05:52:07;993.40;;;6.51;39.61
45071;BME280;30836;48.906;9.140;2023-02-28T05:53:08;993.40;;;6.53;39.49
45071;BME280;30836;48.906;9.140;2023-02-28T05:54:08;993.40;;;6.56;39.42
45071;BME280;30836;48.906;9.140;2023-02-28T05:55:09;993.40;;;6.60;39.43
45071;BME280;30836;48.906;9.140;2023-02-28T05:56:09;993.40;;;6.67;39.23
45071;BME280;30836;48.906;9.140;2023-02-28T05:57:10;993.42;;;6.76;39.10
45071;BME280;30836;48.906;9.140;2023-02-28T05:58:10;993.38;;;6.84;39.01
45071;BME280;30836;48.906;9.140;2023-02-28T05:59:13;993.38;;;6.87;38.91
45071;BME280;30836;48.906;9.140;2023-02-28T06:00:14;993.40;;;6.85;38.97
45071;BME280;30836;48.906;9.140;2023-02-28T06:02:28;993.40;;;6.89;38.67
45071;BME280;30836;48.906;9.140;2023-02-28T06:03:29;993.42;;;6.90;38.74
45071;BME280;30836;48.906;9.140;2023-02-28T06:04:30;993.42;;;6.91;38.70
45071;BME280;30836;48.906;9.140;2023-02-28T06:05:30;993.44;;;6.96;38.57
45071;BME280;30836;48.906;9.140;2023-02-28T06:06:31;993.44;;;7.00;38.60
45071;BME280;30836;48.906;9.140;2023-02-28T06:07:31;993.42;;;6.99;38.51
45071;BME280;30836;48.906;9.140;2023-02-28T06:08:32;993.42;;;7.01;38.58
45071;BME280;30836;48.906;9.140;2023-02-28T06:09:32;993.42;;;7.00;38.48
45071;BME280;30836;48.906;9.140;2023-02-28T06:10:36;993.44;;;7.00;38.49
45071;BME280;30836;48.906;9.140;2023-02-28T06:11:37;993.48;;;7.02;38.49
45071;BME280;30836;48.906;9.140;2023-02-28T06:12:37;993.44;;;7.03;38.43
45071;BME280;30836;48.906;9.140;2023-02-28T06:13:38;993.46;;;7.00;38.59
45071;BME280;30836;48.906;9.140;2023-02-28T06:14:38;993.44;;;6.98;38.63
45071;BME280;30836;48.906;9.140;2023-02-28T06:15:39;993.44;;;6.99;38.55
45071;BME280;30836;48.906;9.140;2023-02-28T06:16:39;993.46;;;6.99;38.53
45071;BME280;30836;48.906;9.140;2023-02-28T06:17:40;993.46;;;7.01;38.68
45071;BME280;30836;48.906;9.140;2023-02-28T06:18:41;993.48;;;7.00;38.80
45071;BME280;30836;48.906;9.140;2023-02-28T06:19:41;993.48;;;6.92;38.96
45071;BME280;30836;48.906;9.140;2023-02-28T06:20:42;993.52;;;6.84;39.02
45071;BME280;30836;48.906;9.140;2023-02-28T06:21:42;993.50;;;6.83;39.02
45071;BME280;30836;48.906;9.140;2023-02-28T06:22:43;993.52;;;6.83;39.03
45071;BME280;30836;48.906;9.140;2023-02-28T06:23:44;993.52;;;6.85;38.93
45071;BME280;30836;48.906;9.140;2023-02-28T06:24:44;993.52;;;6.86;38.88
45071;BME280;30836;48.906;9.140;2023-02-28T06:25:45;993.54;;;6.82;38.95
45071;BME280;30836;48.906;9.140;2023-02-28T06:26:46;993.50;;;6.78;38.98
45071;BME280;30836;48.906;9.140;2023-02-28T06:27:48;993.52;;;6.74;39.08
45071;BME280;30836;48.906;9.140;2023-02-28T06:28:48;993.54;;;6.73;39.14
45071;BME280;30836;48.906;9.140;2023-02-28T06:29:53;993.54;;;6.73;39.15
45071;BME280;30836;48.906;9.140;2023-02-28T06:30:54;993.50;;;6.64;39.50
45071;BME280;30836;48.906;9.140;2023-02-28T06:31:54;993.50;;;6.52;39.53